Time;durP1;ratioP1;P1;durP2;ratioP2;P2;SDS_P1;SDS_P2;PMS_P1;PMS_P2;Temp;Humidity;BMP_temperature;BMP_pressure;BME280_temperature;BME280_humidity;BME280_pressure;Samples;Min_cycle;Max_cycle;Signal;HPM_P1;HPM_P2
2023/07/08 00:01:29;;;;;;;;;;;;;;;30.34;30.75;94395.81;4982535;28;9413;-57
2023/07/08 00:03:57;;;;;;;;;;;;;;;30.32;30.96;94401.16;4965760;28;9402;-57
2023/07/08 00:06:27;;;;;;;;;;;;;;;30.31;29.95;94407.25;4982186;28;9351;-57
2023/07/08 00:08:54;;;;;;;;;;;;;;;30.28;30.11;94402.75;4985200;28;9478;-57
2023/07/08 00:11:22;;;;;;;;;;;;;;;30.29;30.67;94407.03;5002303;28;9958;-57
2023/07/08 00:13:48;;;;;;;;;;;;;;;30.26;30.35;94394.97;4971870;28;7290;-57
2023/07/08 00:16:26;;;;;;;;;;;;;;;30.24;30.23;94392.00;4981933;28;9165;-57
2023/07/08 00:18:52;;;;;;;;;;;;;;;30.23;30.86;94390.50;4984963;28;9433;-57
2023/07/08 00:21:26;;;;;;;;;;;;;;;30.28;30.76;94391.66;4965636;28;9141;-57
2023/07/08 00:23:59;;;;;;;;;;;;;;;30.28;30.63;94392.41;4999250;28;7329;-57
2023/07/08 00:26:36;;;;;;;;;;;;;;;30.26;30.22;94386.66;4986198;28;6998;-57
2023/07/08 00:29:17;;;;;;;;;;;;;;;30.29;30.58;94399.44;4986622;28;7248;-57
2023/07/08 00:31:43;;;;;;;;;;;;;;;30.29;30.17;94405.00;4985594;28;7275;-57
2023/07/08 00:34:12;;;;;;;;;;;;;;;30.31;29.73;94413.56;4969018;28;9044;-56
2023/07/08 00:36:49;;;;;;;;;;;;;;;30.31;29.91;94405.22;4987817;28;7256;-56
2023/07/08 00:39:25;;;;;;;;;;;;;;;30.31;30.35;94405.22;4968121;28;7237;-55
2023/07/08 00:41:54;;;;;;;;;;;;;;;30.30;30.53;94400.16;4970117;28;9226;-56
2023/07/08 00:44:22;;;;;;;;;;;;;;;30.29;30.72;94398.69;4972424;28;7281;-56
2023/07/08 00:47:07;;;;;;;;;;;;;;;30.28;30.09;94397.94;4986981;28;8875;-55
2023/07/08 00:49:49;;;;;;;;;;;;;;;30.26;29.96;94394.22;4987830;28;7239;-55
2023/07/08 00:52:21;;;;;;;;;;;;;;;30.25;30.39;94404.59;4982548;28;7236;-55
2023/07/08 00:55:14;;;;;;;;;;;;;;;30.25;29.82;94404.59;4999022;28;9082;-55
2023/07/08 00:57:45;;;;;;;;;;;;;;;30.24;30.94;94408.66;4999926;28;9229;-56
2023/07/08 01:00:23;;;;;;;;;;;;;;;30.23;30.02;94409.19;4984203;28;7760;-56
2023/07/08 01:02:58;;;;;;;;;;;;;;;30.20;30.47;94418.59;4976815;28;7198;-56
2023/07/08 01:05:29;;;;;;;;;;;;;;;30.21;30.49;94426.38;4966919;28;9587;-56
2023/07/08 01:08:42;;;;;;;;;;;;;;;30.23;30.71;94423.78;4954452;28;7290;-56
2023/07/08 01:11:09;;;;;;;;;;;;;;;30.23;30.43;94423.78;4951683;28;7268;-56
2023/07/08 01:13:42;;;;;;;;;;;;;;;30.23;30.49;94418.25;4936772;28;7513;-56
2023/07/08 01:16:11;;;;;;;;;;;;;;;30.21;30.18;94423.59;4952723;28;7554;-56
2023/07/08 01:18:38;;;;;;;;;;;;;;;30.21;31.03;94425.66;4945139;28;7419;-56
2023/07/08 01:21:34;;;;;;;;;;;;;;;30.21;30.42;94429.13;4945016;28;7232;-56
2023/07/08 01:24:07;;;;;;;;;;;;;;;30.23;30.17;94428.63;4953282;28;7071;-56
2023/07/08 01:26:46;;;;;;;;;;;;;;;30.23;30.64;94423.78;4937098;28;8780;-56
2023/07/08 01:29:28;;;;;;;;;;;;;;;30.20;30.56;94421.38;4955425;28;6988;-56
2023/07/08 01:32:06;;;;;;;;;;;;;;;30.20;30.48;94424.13;4946641;28;9702;-56
2023/07/08 01:34:59;;;;;;;;;;;;;;;30.13;29.87;94420.00;4947156;28;6997;-56
2023/07/08 01:38:07;;;;;;;;;;;;;;;30.11;29.96;94428.13;4953129;28;8429;-56
2023/07/08 01:40:57;;;;;;;;;;;;;;;30.12;30.43;94437.19;4952792;28;8884;-56
2023/07/08 01:43:23;;;;;;;;;;;;;;;30.11;31.13;94432.94;4952696;28;8224;-56
2023/07/08 01:46:20;;;;;;;;;;;;;;;30.14;30.65;94437.41;4928125;28;7155;-61
2023/07/08 01:48:51;;;;;;;;;;;;;;;30.15;31.18;94433.34;4976766;28;7245;-61
2023/07/08 01:51:28;;;;;;;;;;;;;;;30.14;30.54;94445.72;4983327;28;7248;-61
2023/07/08 01:53:54;;;;;;;;;;;;;;;30.16;30.97;94446.69;4985941;28;6998;-61
2023/07/08 01:56:26;;;;;;;;;;;;;;;30.13;30.37;94442.19;4969325;28;7631;-61
2023/07/08 01:59:03;;;;;;;;;;;;;;;30.14;30.14;94443.72;4968114;28;8812;-61
2023/07/08 02:01:54;;;;;;;;;;;;;;;30.12;31.03;94440.72;4983223;28;8759;-61
2023/07/08 02:04:28;;;;;;;;;;;;;;;30.13;30.22;94447.75;4965539;28;7249;-61
2023/07/08 02:06:59;;;;;;;;;;;;;;;30.11;30.44;94439.22;5000151;28;9132;-61
2023/07/08 02:09:35;;;;;;;;;;;;;;;30.15;31.70;94430.56;4964976;28;9437;-61
2023/07/08 02:12:04;;;;;;;;;;;;;;;30.12;31.19;94426.84;5000008;28;6962;-61
2023/07/08 02:14:31;;;;;;;;;;;;;;;30.10;31.00;94431.44;4983643;28;6998;-62
2023/07/08 02:16:59;;;;;;;;;;;;;;;30.10;30.90;94425.91;4985882;28;9339;-61
2023/07/08 02:19:27;;;;;;;;;;;;;;;30.08;30.99;94414.59;4983413;28;7004;-61
2023/07/08 02:22:19;;;;;;;;;;;;;;;30.10;31.10;94414.81;4983085;28;8428;-61
2023/07/08 02:24:49;;;;;;;;;;;;;;;30.07;30.83;94418.66;4982801;28;9092;-61
2023/07/08 02:27:17;;;;;;;;;;;;;;;30.04;30.14;94411.41;4984082;28;7191;-61
2023/07/08 02:29:47;;;;;;;;;;;;;;;30.00;30.73;94406.19;4964317;28;7149;-61
2023/07/08 02:32:13;;;;;;;;;;;;;;;30.01;31.02;94404.19;4980486;28;7222;-61
2023/07/08 02:34:39;;;;;;;;;;;;;;;29.97;30.30;94407.25;4980858;28;7255;-60
2023/07/08 02:37:05;;;;;;;;;;;;;;;30.00;30.94;94399.91;4995594;28;7318;-60
2023/07/08 02:39:30;;;;;;;;;;;;;;;29.99;30.38;94393.63;4963196;28;7535;-60
2023/07/08 02:41:58;;;;;;;;;;;;;;;29.97;30.98;94398.94;4963687;28;7212;-60
2023/07/08 02:44:35;;;;;;;;;;;;;;;29.98;30.95;94394.91;4967159;28;7143;-61
2023/07/08 02:47:20;;;;;;;;;;;;;;;29.93;30.25;94398.53;4969836;28;7001;-60
2023/07/08 02:49:46;;;;;;;;;;;;;;;29.95;30.36;94403.56;4983508;28;9371;-61
2023/07/08 02:52:12;;;;;;;;;;;;;;;29.99;31.17;94407.50;4978547;28;7001;-61
2023/07/08 02:54:49;;;;;;;;;;;;;;;29.99;31.03;94415.81;4965785;28;9188;-65
2023/07/08 02:57:46;;;;;;;;;;;;;;;30.00;29.92;94422.09;5002586;28;8203;-66
2023/07/08 03:00:13;;;;;;;;;;;;;;;30.03;31.02;94430.09;4954382;28;6853;-65
2023/07/08 03:02:49;;;;;;;;;;;;;;;29.95;30.30;94432.03;4967980;28;9237;-66
2023/07/08 03:05:24;;;;;;;;;;;;;;;29.94;30.76;94449.22;4966719;28;7086;-65
2023/07/08 03:08:00;;;;;;;;;;;;;;;29.93;30.83;94448.47;4948472;28;8742;-65
2023/07/08 03:10:40;;;;;;;;;;;;;;;29.96;29.71;94450.16;4966197;28;7243;-66
2023/07/08 03:13:06;;;;;;;;;;;;;;;29.91;30.20;94448.25;4950362;28;9387;-66
2023/07/08 03:15:44;;;;;;;;;;;;;;;29.90;31.08;94441.22;4973172;28;9079;-65
2023/07/08 03:18:10;;;;;;;;;;;;;;;29.88;30.03;94437.50;4967471;28;7041;-65
2023/07/08 03:20:48;;;;;;;;;;;;;;;29.88;30.19;94438.25;4966378;28;7006;-66
2023/07/08 03:23:23;;;;;;;;;;;;;;;29.90;30.56;94444.00;4965378;28;9114;-65
2023/07/08 03:26:03;;;;;;;;;;;;;;;29.91;30.28;94458.59;4949648;28;6985;-65
2023/07/08 03:28:38;;;;;;;;;;;;;;;29.90;30.09;94477.28;4950162;28;7242;-65
2023/07/08 03:31:08;;;;;;;;;;;;;;;29.89;31.05;94486.13;4967895;28;7670;-65
2023/07/08 03:33:55;;;;;;;;;;;;;;;29.86;30.69;94507.38;4963753;28;6983;-65
2023/07/08 03:36:24;;;;;;;;;;;;;;;29.85;29.82;94516.97;4961260;28;7465;-65
2023/07/08 03:39:09;;;;;;;;;;;;;;;29.88;30.19;94543.63;4988540;28;7640;-66
2023/07/08 03:42:22;;;;;;;;;;;;;;;29.88;30.96;94546.41;4971441;28;9189;-65
2023/07/08 03:45:05;;;;;;;;;;;;;;;29.89;31.04;94538.81;4944969;28;8312;-65
2023/07/08 03:48:02;;;;;;;;;;;;;;;29.89;30.42;94539.56;4938324;28;7328;-65
2023/07/08 03:51:18;;;;;;;;;;;;;;;29.86;31.27;94518.47;4897340;29;7077;-66
2023/07/08 03:53:44;;;;;;;;;;;;;;;29.87;30.62;94522.72;4896705;29;7468;-66
2023/07/08 03:56:13;;;;;;;;;;;;;;;29.85;30.22;94519.75;4895060;29;9463;-65
2023/07/08 03:58:42;;;;;;;;;;;;;;;29.85;30.62;94505.88;4878877;29;7288;-65
2023/07/08 04:01:17;;;;;;;;;;;;;;;29.85;30.72;94511.41;4894678;29;6941;-66
2023/07/08 04:03:45;;;;;;;;;;;;;;;29.85;31.11;94516.22;4880047;29;7164;-57
2023/07/08 04:06:12;;;;;;;;;;;;;;;29.83;30.53;94518.78;4896400;29;7163;-57
2023/07/08 04:08:38;;;;;;;;;;;;;;;29.82;30.26;94529.13;4880500;29;7482;-57
2023/07/08 04:11:04;;;;;;;;;;;;;;;29.86;30.78;94540.66;4896405;29;7448;-58
2023/07/08 04:13:40;;;;;;;;;;;;;;;29.88;30.73;94543.63;4889808;29;7288;-57
2023/07/08 04:16:19;;;;;;;;;;;;;;;29.88;30.69;94538.09;4895892;29;7157;-57
2023/07/08 04:18:55;;;;;;;;;;;;;;;29.88;31.34;94535.31;4893464;29;9118;-57
2023/07/08 04:21:24;;;;;;;;;;;;;;;29.87;31.04;94533.81;4901009;29;7321;-57
2023/07/08 04:23:51;;;;;;;;;;;;;;;29.88;31.48;94549.19;4914384;29;7293;-58
2023/07/08 04:26:18;;;;;;;;;;;;;;;29.87;31.53;94547.69;4938018;28;7051;-57
2023/07/08 04:28:50;;;;;;;;;;;;;;;29.89;30.93;94563.78;4972529;28;8540;-57
2023/07/08 04:31:24;;;;;;;;;;;;;;;29.84;30.75;94550.78;4969234;28;7065;-57
2023/07/08 04:33:54;;;;;;;;;;;;;;;29.84;31.04;94561.88;4983948;28;7435;-57
2023/07/08 04:36:36;;;;;;;;;;;;;;;29.86;30.99;94573.94;4985616;28;6941;-57
2023/07/08 04:39:31;;;;;;;;;;;;;;;29.87;31.66;94583.72;4972005;28;6981;-57
2023/07/08 04:42:44;;;;;;;;;;;;;;;29.87;30.51;94591.28;4947564;28;7177;-57
2023/07/08 04:45:12;;;;;;;;;;;;;;;29.86;30.99;94607.22;4916030;29;9384;-57
2023/07/08 04:47:52;;;;;;;;;;;;;;;29.83;30.63;94616.59;4916731;29;7149;-57
2023/07/08 04:50:20;;;;;;;;;;;;;;;29.84;31.11;94618.06;4900025;29;9240;-57
2023/07/08 04:52:49;;;;;;;;;;;;;;;29.84;30.93;94620.84;4896893;29;8052;-57
2023/07/08 04:55:47;;;;;;;;;;;;;;;29.88;31.75;94637.16;4914154;29;7213;-57
2023/07/08 04:58:44;;;;;;;;;;;;;;;29.86;30.54;94640.47;4844281;29;7227;-57
2023/07/08 05:01:19;;;;;;;;;;;;;;;29.85;30.60;94650.06;4859282;29;7603;-58
2023/07/08 05:03:49;;;;;;;;;;;;;;;29.85;30.64;94647.28;4844062;29;7250;-57
2023/07/08 05:06:16;;;;;;;;;;;;;;;29.82;31.51;94644.84;4844270;29;9025;-57
2023/07/08 05:08:49;;;;;;;;;;;;;;;29.80;31.09;94642.59;4843913;29;7239;-57
2023/07/08 05:11:19;;;;;;;;;;;;;;;29.77;31.33;94654.78;4843149;29;7364;-57
2023/07/08 05:13:56;;;;;;;;;;;;;;;29.78;31.73;94665.31;4843247;29;7721;-57
2023/07/08 05:16:22;;;;;;;;;;;;;;;29.82;30.70;94665.00;4858810;29;7121;-57
2023/07/08 05:18:50;;;;;;;;;;;;;;;29.81;30.61;94671.84;4857070;29;9066;-57
2023/07/08 05:21:18;;;;;;;;;;;;;;;29.83;31.91;94685.16;4871781;29;9364;-57
2023/07/08 05:23:51;;;;;;;;;;;;;;;29.79;31.11;94685.47;4939257;28;7374;-57
2023/07/08 05:26:17;;;;;;;;;;;;;;;29.75;32.04;94687.81;4940719;28;7452;-57
2023/07/08 05:28:43;;;;;;;;;;;;;;;29.75;31.24;94696.16;4925592;29;8822;-57
2023/07/08 05:31:13;;;;;;;;;;;;;;;29.75;31.03;94701.69;4911806;29;7222;-57
2023/07/08 05:33:40;;;;;;;;;;;;;;;29.74;32.34;94705.72;4931298;28;9258;-57
2023/07/08 05:36:08;;;;;;;;;;;;;;;29.72;31.79;94711.03;4999301;28;7161;-57
2023/07/08 05:38:37;;;;;;;;;;;;;;;29.68;31.18;94710.59;4983352;28;7171;-57
2023/07/08 05:41:09;;;;;;;;;;;;;;;29.65;32.05;94715.19;4966685;28;9302;-57
2023/07/08 05:43:40;;;;;;;;;;;;;;;29.65;32.38;94725.50;4987550;28;7241;-57
2023/07/08 05:46:16;;;;;;;;;;;;;;;29.61;31.53;94725.09;4966860;28;8647;-57
2023/07/08 05:49:21;;;;;;;;;;;;;;;29.63;31.37;94720.50;4975036;28;7260;-57
2023/07/08 05:52:10;;;;;;;;;;;;;;;29.65;32.32;94722.75;4936322;28;7276;-57
2023/07/08 05:54:47;;;;;;;;;;;;;;;29.63;32.53;94716.97;4930078;28;9124;-57
2023/07/08 05:57:23;;;;;;;;;;;;;;;29.64;32.67;94733.09;4948533;28;7224;-57
2023/07/08 06:00:18;;;;;;;;;;;;;;;29.64;32.88;94730.34;4949850;28;8481;-57
2023/07/08 06:02:48;;;;;;;;;;;;;;;29.62;33.09;94729.38;4856135;29;9075;-57
2023/07/08 06:05:23;;;;;;;;;;;;;;;29.66;31.97;94738.13;4853873;29;7640;-57
2023/07/08 06:07:53;;;;;;;;;;;;;;;29.65;32.58;94733.84;4858135;29;9289;-57
2023/07/08 06:10:44;;;;;;;;;;;;;;;29.63;32.64;94737.13;4856821;29;7274;-57
2023/07/08 06:13:12;;;;;;;;;;;;;;;29.59;32.22;94739.47;4855056;29;8561;-57
2023/07/08 06:15:47;;;;;;;;;;;;;;;29.63;32.74;94745.47;4856628;29;7625;-57
2023/07/08 06:18:26;;;;;;;;;;;;;;;29.61;32.75;94752.81;4836880;29;9079;-57
2023/07/08 06:20:54;;;;;;;;;;;;;;;29.58;32.48;94748.34;4836909;29;7026;-57
2023/07/08 06:23:33;;;;;;;;;;;;;;;29.57;32.88;94752.38;4882491;29;7390;-57
2023/07/08 06:26:31;;;;;;;;;;;;;;;29.57;32.40;94753.13;4886657;29;9800;-57
2023/07/08 06:29:30;;;;;;;;;;;;;;;29.59;33.10;94761.66;4879640;29;7231;-57
2023/07/08 06:31:56;;;;;;;;;;;;;;;29.58;33.27;94759.44;4877002;29;7279;-57
2023/07/08 06:34:32;;;;;;;;;;;;;;;29.59;33.22;94758.13;4877703;29;9325;-57
2023/07/08 06:37:00;;;;;;;;;;;;;;;29.60;32.67;94756.88;4897749;29;7523;-57
2023/07/08 06:39:30;;;;;;;;;;;;;;;29.60;32.97;94745.78;4941965;28;7330;-57
2023/07/08 06:42:03;;;;;;;;;;;;;;;29.58;33.69;94749.06;4983212;28;7254;-57
2023/07/08 06:44:32;;;;;;;;;;;;;;;29.55;32.76;94750.13;4997477;28;7144;-57
2023/07/08 06:47:25;;;;;;;;;;;;;;;29.53;33.59;94752.69;4969188;28;7335;-57
2023/07/08 06:50:00;;;;;;;;;;;;;;;29.52;33.75;94753.19;4951627;28;6989;-57
2023/07/08 06:52:33;;;;;;;;;;;;;;;29.53;33.95;94749.91;4968029;28;9063;-58
2023/07/08 06:55:02;;;;;;;;;;;;;;;29.54;33.69;94751.41;4963895;28;9502;-57
2023/07/08 06:58:03;;;;;;;;;;;;;;;29.58;34.10;94748.34;4947714;28;7243;-57
2023/07/08 07:00:44;;;;;;;;;;;;;;;29.60;33.55;94743.00;4868252;29;8938;-57
2023/07/08 07:03:10;;;;;;;;;;;;;;;29.60;33.83;94743.00;4881521;29;7399;-56
2023/07/08 07:05:38;;;;;;;;;;;;;;;29.61;33.57;94741.72;4879703;29;8110;-56
2023/07/08 07:08:04;;;;;;;;;;;;;;;29.61;33.34;94738.94;4879320;29;9108;-57
2023/07/08 07:10:41;;;;;;;;;;;;;;;29.60;34.07;94740.25;4880660;29;9162;-56
2023/07/08 07:13:16;;;;;;;;;;;;;;;29.59;33.70;94744.28;4885381;29;9071;-56
2023/07/08 07:15:42;;;;;;;;;;;;;;;29.56;33.37;94739.78;4885009;29;7320;-56
2023/07/08 07:18:20;;;;;;;;;;;;;;;29.55;34.13;94732.75;4867767;29;8458;-56
2023/07/08 07:20:58;;;;;;;;;;;;;;;29.54;34.10;94734.00;4867248;29;7458;-56
2023/07/08 07:23:46;;;;;;;;;;;;;;;29.51;33.62;94727.53;4869040;29;8783;-56
2023/07/08 07:26:22;;;;;;;;;;;;;;;29.48;33.53;94717.50;4872141;29;9093;-56
2023/07/08 07:29:06;;;;;;;;;;;;;;;29.51;33.70;94716.44;4884965;29;9444;-57
2023/07/08 07:31:47;;;;;;;;;;;;;;;29.50;34.73;94719.72;4902093;29;7382;-56
2023/07/08 07:34:17;;;;;;;;;;;;;;;29.51;33.87;94710.91;4933394;28;6998;-64
2023/07/08 07:36:52;;;;;;;;;;;;;;;29.52;34.55;94706.84;4966775;28;7331;-64
2023/07/08 07:39:33;;;;;;;;;;;;;;;29.52;34.33;94697.75;4979372;28;7272;-63
2023/07/08 07:42:08;;;;;;;;;;;;;;;29.50;34.00;94697.56;4967872;28;9168;-62
2023/07/08 07:44:39;;;;;;;;;;;;;;;29.54;34.46;94697.97;4973240;28;9026;-64
2023/07/08 07:47:06;;;;;;;;;;;;;;;29.53;34.98;94688.94;5004283;28;7024;-64
2023/07/08 07:49:39;;;;;;;;;;;;;;;29.56;33.83;94692.66;4984601;28;8078;-63
2023/07/08 07:52:10;;;;;;;;;;;;;;;29.55;34.68;94691.16;4987118;28;7251;-64
2023/07/08 07:54:44;;;;;;;;;;;;;;;29.54;34.70;94689.66;4986919;28;7282;-64
2023/07/08 07:57:12;;;;;;;;;;;;;;;29.54;34.32;94686.91;4966912;28;7335;-64
2023/07/08 07:59:41;;;;;;;;;;;;;;;29.57;34.60;94688.63;5004933;28;7068;-64
2023/07/08 08:02:13;;;;;;;;;;;;;;;29.57;34.03;94692.16;5000938;28;7247;-63
2023/07/08 08:04:41;;;;;;;;;;;;;;;29.58;34.40;94693.63;4972566;28;7285;-64
2023/07/08 08:07:10;;;;;;;;;;;;;;;29.59;34.52;94688.84;4983258;28;7219;-63
2023/07/08 08:09:37;;;;;;;;;;;;;;;29.59;34.73;94684.03;4968862;28;7423;-64
2023/07/08 08:12:08;;;;;;;;;;;;;;;29.60;34.11;94684.78;5001366;28;8917;-63
2023/07/08 08:14:37;;;;;;;;;;;;;;;29.61;35.06;94680.72;4986494;28;8746;-63
2023/07/08 08:17:33;;;;;;;;;;;;;;;29.61;34.47;94680.72;4972087;28;7265;-63
2023/07/08 08:20:02;;;;;;;;;;;;;;;29.61;34.54;94675.19;4898994;29;8042;-64
2023/07/08 08:22:37;;;;;;;;;;;;;;;29.61;34.90;94664.09;4913526;29;7268;-63
2023/07/08 08:25:16;;;;;;;;;;;;;;;29.63;35.13;94676.16;4912876;29;6996;-64
2023/07/08 08:27:43;;;;;;;;;;;;;;;29.65;35.78;94665.28;4914912;29;8802;-63
2023/07/08 08:30:21;;;;;;;;;;;;;;;29.68;34.80;94663.47;4899536;29;7447;-64
2023/07/08 08:32:54;;;;;;;;;;;;;;;29.67;35.43;94657.19;4914387;29;9141;-64
2023/07/08 08:35:22;;;;;;;;;;;;;;;29.68;34.54;94652.38;4914541;29;7248;-64
2023/07/08 08:38:03;;;;;;;;;;;;;;;29.67;35.16;94653.66;4899804;29;9109;-63
2023/07/08 08:40:41;;;;;;;;;;;;;;;29.70;34.62;94660.91;4913861;29;9017;-64
2023/07/08 08:43:39;;;;;;;;;;;;;;;29.70;34.60;94661.66;4913399;29;7843;-64
2023/07/08 08:46:15;;;;;;;;;;;;;;;29.69;35.76;94654.63;4857469;29;9102;-63
2023/07/08 08:49:13;;;;;;;;;;;;;;;29.70;34.90;94652.59;4858284;29;9012;-63
2023/07/08 08:51:40;;;;;;;;;;;;;;;29.71;35.86;94654.81;4853438;29;9056;-63
2023/07/08 08:54:10;;;;;;;;;;;;;;;29.66;36.01;94650.16;4852062;29;7142;-65
2023/07/08 08:56:47;;;;;;;;;;;;;;;29.69;34.81;94653.88;4878248;29;7494;-64
2023/07/08 08:59:39;;;;;;;;;;;;;;;29.70;34.80;94647.06;4904307;29;7125;-64
2023/07/08 09:02:26;;;;;;;;;;;;;;;29.72;35.69;94650.03;4896286;29;7914;-64
2023/07/08 09:04:52;;;;;;;;;;;;;;;29.71;34.90;94640.25;4908661;29;8203;-64
2023/07/08 09:07:53;;;;;;;;;;;;;;;29.72;35.08;94645.25;4928208;29;7208;-64
2023/07/08 09:10:46;;;;;;;;;;;;;;;29.73;35.39;94643.22;4928918;29;7274;-64
2023/07/08 09:13:44;;;;;;;;;;;;;;;29.74;34.59;94639.19;4914438;29;7184;-63
2023/07/08 09:16:26;;;;;;;;;;;;;;;29.70;35.75;94631.16;4914725;29;7282;-63
2023/07/08 09:19:09;;;;;;;;;;;;;;;29.73;34.99;94626.59;4910583;29;9167;-64
2023/07/08 09:21:46;;;;;;;;;;;;;;;29.74;36.08;94625.31;4935382;28;8341;-63
2023/07/08 09:24:27;;;;;;;;;;;;;;;29.76;34.91;94631.09;4964809;28;8000;-64
2023/07/08 09:27:00;;;;;;;;;;;;;;;29.77;35.65;94635.34;4981733;28;8728;-64
2023/07/08 09:29:28;;;;;;;;;;;;;;;29.74;35.18;94608.69;4986414;28;7257;-64
2023/07/08 09:31:58;;;;;;;;;;;;;;;29.76;35.11;94606.13;4984841;28;8766;-64
2023/07/08 09:34:57;;;;;;;;;;;;;;;29.78;35.72;94618.19;4986689;28;7212;-63
2023/07/08 09:37:35;;;;;;;;;;;;;;;29.79;35.56;94614.13;4977127;28;7130;-64
2023/07/08 09:40:14;;;;;;;;;;;;;;;29.81;35.82;94613.59;4986673;28;9486;-64
2023/07/08 09:42:46;;;;;;;;;;;;;;;29.82;35.70;94611.59;4972044;28;9094;-64
2023/07/08 09:45:18;;;;;;;;;;;;;;;29.81;35.42;94610.81;4969981;28;7058;-63
2023/07/08 09:47:47;;;;;;;;;;;;;;;29.82;35.30;94609.53;4970984;28;7871;-63
2023/07/08 09:50:27;;;;;;;;;;;;;;;29.82;35.29;94612.31;4986608;28;7269;-63
2023/07/08 09:53:04;;;;;;;;;;;;;;;29.84;34.17;94612.50;4983126;28;7494;-63
2023/07/08 09:55:50;;;;;;;;;;;;;;;29.85;33.89;94613.28;4984005;28;7205;-60
2023/07/08 09:58:44;;;;;;;;;;;;;;;29.83;34.50;94613.81;4969950;28;9170;-61
2023/07/08 10:01:29;;;;;;;;;;;;;;;29.84;34.70;94629.16;4984791;28;9025;-60
2023/07/08 10:04:01;;;;;;;;;;;;;;;29.79;33.98;94614.13;4997362;28;7336;-60
2023/07/08 10:06:35;;;;;;;;;;;;;;;29.75;33.76;94621.28;5003257;28;6969;-61
2023/07/08 10:09:19;;;;;;;;;;;;;;;29.70;35.01;94619.31;4999504;28;7050;-61
2023/07/08 10:12:04;;;;;;;;;;;;;;;29.69;35.31;94623.38;4966495;28;8955;-60
2023/07/08 10:14:41;;;;;;;;;;;;;;;29.62;35.08;94621.97;4984042;28;9406;-61
2023/07/08 10:17:19;;;;;;;;;;;;;;;29.65;34.86;94622.94;4982716;28;9540;-61
2023/07/08 10:19:48;;;;;;;;;;;;;;;29.65;35.03;94620.91;4968335;28;8841;-61
2023/07/08 10:22:19;;;;;;;;;;;;;;;29.68;35.87;94624.66;4969357;28;9134;-61
2023/07/08 10:25:27;;;;;;;;;;;;;;;29.70;35.79;94620.06;5001075;28;7269;-61
2023/07/08 10:28:46;;;;;;;;;;;;;;;29.75;35.39;94624.06;4984994;28;7267;-61
2023/07/08 10:31:42;;;;;;;;;;;;;;;29.77;34.98;94624.28;4949011;28;7343;-60
2023/07/08 10:34:27;;;;;;;;;;;;;;;29.77;34.54;94627.03;4950420;28;9137;-60
2023/07/08 10:36:55;;;;;;;;;;;;;;;29.73;35.49;94624.53;4952153;28;7495;-60
2023/07/08 10:39:24;;;;;;;;;;;;;;;29.75;34.77;94627.56;4946380;28;7266;-61
2023/07/08 10:42:01;;;;;;;;;;;;;;;29.75;35.05;94619.25;4943291;28;6967;-61
2023/07/08 10:44:59;;;;;;;;;;;;;;;29.77;35.68;94615.94;4946256;28;7221;-60
2023/07/08 10:47:43;;;;;;;;;;;;;;;29.81;34.72;94621.91;4925970;28;8637;-60
2023/07/08 10:50:32;;;;;;;;;;;;;;;29.82;34.38;94631.72;4949306;28;8313;-60
2023/07/08 10:53:08;;;;;;;;;;;;;;;29.85;35.35;94625.13;4945707;28;7311;-60
2023/07/08 10:56:01;;;;;;;;;;;;;;;29.83;34.59;94619.34;4951730;28;8750;-61
2023/07/08 10:58:41;;;;;;;;;;;;;;;29.87;34.63;94628.09;4918362;29;7246;-60
2023/07/08 11:01:30;;;;;;;;;;;;;;;29.89;34.47;94622.00;4930829;29;7224;-61
2023/07/08 11:04:29;;;;;;;;;;;;;;;29.88;35.19;94621.28;4948440;28;9088;-62
2023/07/08 11:07:03;;;;;;;;;;;;;;;29.90;35.29;94617.97;4965852;28;7157;-62
2023/07/08 11:09:50;;;;;;;;;;;;;;;29.91;35.39;94613.91;4980550;28;7582;-62
2023/07/08 11:12:45;;;;;;;;;;;;;;;29.92;34.98;94627.25;4999096;28;7192;-62
2023/07/08 11:15:51;;;;;;;;;;;;;;;29.92;34.75;94621.69;4975212;28;9094;-62
2023/07/08 11:18:50;;;;;;;;;;;;;;;29.94;34.43;94619.13;4918610;29;9027;-62
2023/07/08 11:21:41;;;;;;;;;;;;;;;29.95;34.43;94612.28;4934768;29;6939;-62
2023/07/08 11:25:02;;;;;;;;;;;;;;;29.95;34.69;94614.34;4919199;29;7103;-62
2023/07/08 11:27:41;;;;;;;;;;;;;;;29.94;35.64;94610.81;4859787;29;7231;-62
2023/07/08 11:30:47;;;;;;;;;;;;;;;29.95;34.72;94612.28;4859086;29;7097;-62
2023/07/08 11:33:23;;;;;;;;;;;;;;;29.93;35.02;94609.31;4841670;29;10102;-62
2023/07/08 11:36:03;;;;;;;;;;;;;;;29.91;35.79;94608.34;4827424;29;7347;-62
2023/07/08 11:39:04;;;;;;;;;;;;;;;29.92;35.47;94607.09;4842236;29;9107;-62
2023/07/08 11:41:52;;;;;;;;;;;;;;;29.94;35.95;94601.75;4812337;29;7186;-62
2023/07/08 11:44:20;;;;;;;;;;;;;;;29.96;34.93;94594.38;4833847;29;9486;-62
2023/07/08 11:50:42;;;;;;;;;;;;;;;30.02;36.09;94597.78;4781806;29;7770;-62
2023/07/08 11:53:29;;;;;;;;;;;;;;;30.07;35.57;94593.41;4781045;29;8467;-62
2023/07/08 11:56:01;;;;;;;;;;;;;;;30.10;36.20;94593.06;4795620;29;7933;-62
2023/07/08 11:59:30;;;;;;;;;;;;;;;30.11;35.78;94599.38;4794026;29;7065;-62
2023/07/08 12:02:31;;;;;;;;;;;;;;;30.11;36.70;94596.59;4820095;29;7175;-62
2023/07/08 12:05:15;;;;;;;;;;;;;;;30.09;36.22;94597.16;4864538;29;7279;-62
2023/07/08 12:07:51;;;;;;;;;;;;;;;30.11;35.83;94597.34;4868896;29;8502;-62
2023/07/08 12:10:34;;;;;;;;;;;;;;;30.09;37.05;94591.59;4867988;29;9055;-62
2023/07/08 12:13:04;;;;;;;;;;;;;;;30.10;36.23;94593.06;4869517;29;7288;-62
2023/07/08 12:15:41;;;;;;;;;;;;;;;30.10;36.37;94597.91;4869456;29;7622;-57
2023/07/08 12:18:31;;;;;;;;;;;;;;;30.09;37.25;94594.38;4923256;29;7015;-57
2023/07/08 12:21:13;;;;;;;;;;;;;;;30.09;36.52;94591.59;4909859;29;9046;-57
2023/07/08 12:24:26;;;;;;;;;;;;;;;30.07;37.63;94596.19;4927148;29;7006;-57
2023/07/08 12:27:04;;;;;;;;;;;;;;;30.06;37.19;94589.16;4976056;28;7186;-56
2023/07/08 12:29:58;;;;;;;;;;;;;;;30.07;36.92;94591.38;5003690;28;7901;-57
2023/07/08 12:32:30;;;;;;;;;;;;;;;30.09;36.84;94590.84;4971151;28;7197;-57
2023/07/08 12:35:22;;;;;;;;;;;;;;;30.06;37.69;94583.63;4985036;28;6999;-57
2023/07/08 12:38:22;;;;;;;;;;;;;;;30.03;37.57;94585.44;4971136;28;7527;-57
2023/07/08 12:41:10;;;;;;;;;;;;;;;30.06;38.02;94587.09;4985720;28;7318;-57
2023/07/08 12:43:52;;;;;;;;;;;;;;;30.08;37.10;94583.81;4986975;28;8324;-57
2023/07/08 12:46:21;;;;;;;;;;;;;;;30.08;37.85;94590.09;4974493;28;8065;-57
2023/07/08 12:48:49;;;;;;;;;;;;;;;30.10;37.18;94593.06;4989300;28;7096;-57
2023/07/08 12:51:25;;;;;;;;;;;;;;;30.12;37.49;94589.78;4982546;28;7192;-56
2023/07/08 12:54:00;;;;;;;;;;;;;;;30.13;37.14;94589.25;4968969;28;7263;-56
2023/07/08 12:56:38;;;;;;;;;;;;;;;30.16;37.27;94588.19;4985366;28;7606;-57
2023/07/08 12:59:18;;;;;;;;;;;;;;;30.18;37.05;94585.59;4987632;28;7322;-57
2023/07/08 13:01:55;;;;;;;;;;;;;;;30.18;37.05;94588.38;4987536;28;7228;-57
2023/07/08 13:05:01;;;;;;;;;;;;;;;30.19;37.64;94589.13;4988107;28;9513;-56
2023/07/08 13:08:07;;;;;;;;;;;;;;;30.21;36.96;94583.78;4969656;28;7498;-57
2023/07/08 13:10:59;;;;;;;;;;;;;;;30.20;36.81;94579.50;4984281;28;8870;-57
2023/07/08 13:13:50;;;;;;;;;;;;;;;30.17;37.64;94580.56;4986819;28;8707;-56
2023/07/08 13:16:18;;;;;;;;;;;;;;;30.17;36.57;94577.81;4968409;28;7278;-57
2023/07/08 13:18:47;;;;;;;;;;;;;;;30.17;37.23;94586.88;4998719;28;7274;-57
2023/07/08 13:21:33;;;;;;;;;;;;;;;30.17;37.64;94583.34;4985556;28;9115;-56
2023/07/08 13:24:01;;;;;;;;;;;;;;;30.16;37.21;94581.88;4985143;28;7239;-56
2023/07/08 13:26:46;;;;;;;;;;;;;;;30.14;37.66;94582.41;4999237;28;7898;-56
2023/07/08 13:29:39;;;;;;;;;;;;;;;30.15;37.12;94583.16;4975420;28;7312;-56
2023/07/08 13:32:06;;;;;;;;;;;;;;;30.14;37.22;94576.13;4967175;28;7205;-55
2023/07/08 13:35:11;;;;;;;;;;;;;;;30.16;37.69;94579.84;4985983;28;9082;-55
2023/07/08 13:37:38;;;;;;;;;;;;;;;30.18;37.75;94576.53;4985889;28;7518;-55
2023/07/08 13:40:45;;;;;;;;;;;;;;;30.16;37.23;94574.31;4967614;28;7124;-56
2023/07/08 13:43:14;;;;;;;;;;;;;;;30.18;37.50;94563.41;4962997;28;8728;-56
2023/07/08 13:45:49;;;;;;;;;;;;;;;30.20;37.49;94568.41;4950899;28;8684;-55
2023/07/08 13:48:39;;;;;;;;;;;;;;;30.24;36.37;94575.13;4967329;28;8466;-55
2023/07/08 13:51:23;;;;;;;;;;;;;;;30.22;36.94;94566.59;4964303;28;6891;-55
2023/07/08 13:53:54;;;;;;;;;;;;;;;30.22;36.63;94569.38;4947330;28;7236;-55
2023/07/08 13:56:30;;;;;;;;;;;;;;;30.24;37.25;94571.59;4964253;28;9180;-55
2023/07/08 13:59:09;;;;;;;;;;;;;;;30.25;36.34;94570.34;4959792;28;7089;-56
2023/07/08 14:01:41;;;;;;;;;;;;;;;30.26;36.99;94566.25;4943482;28;7249;-56